sensor_id;sensor_type;location;lat;lon;timestamp;P1;durP1;ratioP1;P2;durP2;ratioP2
51485;SDS011;37565;51.352;6.412;2023-02-26T17:08:06;4.80;;;1.42;;
51485;SDS011;37565;51.352;6.412;2023-02-26T17:10:43;6.75;;;1.27;;
51485;SDS011;37565;51.352;6.412;2023-02-26T17:13:13;5.40;;;1.50;;
51485;SDS011;37565;51.352;6.412;2023-02-26T17:15:43;3.97;;;1.30;;
51485;SDS011;37565;51.352;6.412;2023-02-26T17:18:12;6.28;;;3.75;;
51485;SDS011;37565;51.352;6.412;2023-02-26T17:20:40;6.13;;;3.17;;
51485;SDS011;37565;51.352;6.412;2023-02-26T17:23:11;6.78;;;3.90;;
51485;SDS011;37565;51.352;6.412;2023-02-26T17:25:42;11.65;;;5.03;;
51485;SDS011;37565;51.352;6.412;2023-02-26T17:28:13;8.82;;;3.50;;
51485;SDS011;37565;51.352;6.412;2023-02-26T17:30:46;8.20;;;5.25;;
51485;SDS011;37565;51.352;6.412;2023-02-26T17:33:14;16.95;;;9.55;;
51485;SDS011;37565;51.352;6.412;2023-02-26T17:35:42;21.17;;;12.48;;
51485;SDS011;37565;51.352;6.412;2023-02-26T17:38:12;14.18;;;7.38;;
51485;SDS011;37565;51.352;6.412;2023-02-26T17:40:42;9.65;;;6.93;;
51485;SDS011;37565;51.352;6.412;2023-02-26T17:43:12;17.52;;;9.32;;
51485;SDS011;37565;51.352;6.412;2023-02-26T17:45:40;16.20;;;8.27;;
51485;SDS011;37565;51.352;6.412;2023-02-26T17:48:09;15.98;;;10.32;;
51485;SDS011;37565;51.352;6.412;2023-02-26T17:50:41;12.90;;;7.50;;
51485;SDS011;37565;51.352;6.412;2023-02-26T17:53:13;10.05;;;6.40;;
51485;SDS011;37565;51.352;6.412;2023-02-26T17:55:43;10.85;;;6.75;;
51485;SDS011;37565;51.352;6.412;2023-02-26T17:58:13;11.38;;;7.45;;
51485;SDS011;37565;51.352;6.412;2023-02-26T18:00:43;12.27;;;8.10;;
51485;SDS011;37565;51.352;6.412;2023-02-26T18:03:15;17.60;;;9.80;;
51485;SDS011;37565;51.352;6.412;2023-02-26T18:05:45;26.13;;;7.63;;
51485;SDS011;37565;51.352;6.412;2023-02-26T18:08:17;14.90;;;8.48;;
51485;SDS011;37565;51.352;6.412;2023-02-26T18:10:47;20.35;;;11.77;;
51485;SDS011;37565;51.352;6.412;2023-02-26T18:13:15;17.15;;;11.43;;
51485;SDS011;37565;51.352;6.412;2023-02-26T18:15:43;23.75;;;13.63;;
51485;SDS011;37565;51.352;6.412;2023-02-26T18:18:12;20.33;;;12.65;;
51485;SDS011;37565;51.352;6.412;2023-02-26T18:20:41;21.08;;;12.35;;
51485;SDS011;37565;51.352;6.412;2023-02-26T18:23:11;20.65;;;12.75;;
51485;SDS011;37565;51.352;6.412;2023-02-26T18:25:40;24.38;;;15.23;;
51485;SDS011;37565;51.352;6.412;2023-02-26T18:28:12;29.90;;;18.25;;
51485;SDS011;37565;51.352;6.412;2023-02-26T18:30:42;36.80;;;21.00;;
51485;SDS011;37565;51.352;6.412;2023-02-26T18:33:11;32.40;;;19.92;;
51485;SDS011;37565;51.352;6.412;2023-02-26T18:35:42;37.90;;;21.63;;
51485;SDS011;37565;51.352;6.412;2023-02-26T18:38:12;36.00;;;22.17;;
51485;SDS011;37565;51.352;6.412;2023-02-26T18:40:42;33.05;;;20.45;;
51485;SDS011;37565;51.352;6.412;2023-02-26T18:43:11;33.45;;;20.67;;
51485;SDS011;37565;51.352;6.412;2023-02-26T18:45:40;34.55;;;21.60;;
51485;SDS011;37565;51.352;6.412;2023-02-26T18:48:09;37.17;;;21.70;;
51485;SDS011;37565;51.352;6.412;2023-02-26T18:50:39;41.97;;;25.23;;
51485;SDS011;37565;51.352;6.412;2023-02-26T18:53:06;35.05;;;19.17;;
51485;SDS011;37565;51.352;6.412;2023-02-26T18:55:34;37.78;;;22.45;;
51485;SDS011;37565;51.352;6.412;2023-02-26T18:58:04;37.55;;;24.63;;
51485;SDS011;37565;51.352;6.412;2023-02-26T19:00:32;32.55;;;21.00;;
51485;SDS011;37565;51.352;6.412;2023-02-26T19:03:00;38.25;;;24.45;;
51485;SDS011;37565;51.352;6.412;2023-02-26T19:05:28;41.63;;;26.08;;
51485;SDS011;37565;51.352;6.412;2023-02-26T19:07:56;38.55;;;24.67;;
51485;SDS011;37565;51.352;6.412;2023-02-26T19:10:25;37.50;;;23.58;;
51485;SDS011;37565;51.352;6.412;2023-02-26T19:12:54;36.08;;;22.25;;
51485;SDS011;37565;51.352;6.412;2023-02-26T19:15:23;33.20;;;20.25;;
51485;SDS011;37565;51.352;6.412;2023-02-26T19:17:52;27.65;;;17.30;;
51485;SDS011;37565;51.352;6.412;2023-02-26T19:20:20;31.90;;;18.60;;
51485;SDS011;37565;51.352;6.412;2023-02-26T19:22:48;27.35;;;16.02;;
51485;SDS011;37565;51.352;6.412;2023-02-26T19:25:16;36.83;;;17.20;;
51485;SDS011;37565;51.352;6.412;2023-02-26T19:27:49;22.80;;;15.60;;
51485;SDS011;37565;51.352;6.412;2023-02-26T19:30:18;26.67;;;16.58;;
51485;SDS011;37565;51.352;6.412;2023-02-26T19:32:48;28.98;;;16.92;;
51485;SDS011;37565;51.352;6.412;2023-02-26T19:35:16;29.23;;;18.02;;
51485;SDS011;37565;51.352;6.412;2023-02-26T19:37:45;29.52;;;17.55;;
51485;SDS011;37565;51.352;6.412;2023-02-26T19:40:13;32.00;;;19.55;;
51485;SDS011;37565;51.352;6.412;2023-02-26T19:42:42;29.70;;;18.27;;
51485;SDS011;37565;51.352;6.412;2023-02-26T19:45:11;31.75;;;20.25;;
51485;SDS011;37565;51.352;6.412;2023-02-26T19:47:39;30.42;;;18.63;;
51485;SDS011;37565;51.352;6.412;2023-02-26T19:50:10;33.47;;;20.58;;
51485;SDS011;37565;51.352;6.412;2023-02-26T19:52:39;31.83;;;19.75;;
51485;SDS011;37565;51.352;6.412;2023-02-26T19:55:07;37.50;;;22.73;;
51485;SDS011;37565;51.352;6.412;2023-02-26T19:57:36;41.00;;;23.83;;
51485;SDS011;37565;51.352;6.412;2023-02-26T20:00:04;41.63;;;24.50;;
51485;SDS011;37565;51.352;6.412;2023-02-26T20:02:33;39.40;;;24.23;;
51485;SDS011;37565;51.352;6.412;2023-02-26T20:05:01;36.05;;;22.42;;
51485;SDS011;37565;51.352;6.412;2023-02-26T20:07:32;37.03;;;24.20;;
51485;SDS011;37565;51.352;6.412;2023-02-26T20:10:00;40.42;;;26.35;;
51485;SDS011;37565;51.352;6.412;2023-02-26T20:12:28;36.45;;;23.90;;
51485;SDS011;37565;51.352;6.412;2023-02-26T20:14:56;42.72;;;28.25;;
51485;SDS011;37565;51.352;6.412;2023-02-26T20:17:24;43.55;;;26.83;;
51485;SDS011;37565;51.352;6.412;2023-02-26T20:19:52;48.50;;;27.75;;
51485;SDS011;37565;51.352;6.412;2023-02-26T20:22:20;44.10;;;26.17;;
51485;SDS011;37565;51.352;6.412;2023-02-26T20:24:51;39.72;;;25.20;;
51485;SDS011;37565;51.352;6.412;2023-02-26T20:27:18;42.92;;;25.80;;
51485;SDS011;37565;51.352;6.412;2023-02-26T20:29:46;37.70;;;23.58;;
51485;SDS011;37565;51.352;6.412;2023-02-26T20:32:16;30.85;;;21.50;;
51485;SDS011;37565;51.352;6.412;2023-02-26T20:34:45;40.58;;;25.40;;
51485;SDS011;37565;51.352;6.412;2023-02-26T20:37:13;42.97;;;26.88;;
51485;SDS011;37565;51.352;6.412;2023-02-26T20:39:40;41.10;;;25.40;;
51485;SDS011;37565;51.352;6.412;2023-02-26T20:42:10;43.92;;;28.95;;
51485;SDS011;37565;51.352;6.412;2023-02-26T20:44:38;35.38;;;24.13;;
51485;SDS011;37565;51.352;6.412;2023-02-26T20:47:06;45.00;;;29.73;;
51485;SDS011;37565;51.352;6.412;2023-02-26T20:49:34;43.00;;;25.38;;
51485;SDS011;37565;51.352;6.412;2023-02-26T20:52:02;41.28;;;25.75;;
51485;SDS011;37565;51.352;6.412;2023-02-26T20:54:30;43.20;;;27.08;;
51485;SDS011;37565;51.352;6.412;2023-02-26T20:56:58;39.85;;;25.25;;
51485;SDS011;37565;51.352;6.412;2023-02-26T20:59:28;39.47;;;26.13;;
51485;SDS011;37565;51.352;6.412;2023-02-26T21:01:56;41.47;;;25.85;;
51485;SDS011;37565;51.352;6.412;2023-02-26T21:04:23;40.47;;;26.00;;
51485;SDS011;37565;51.352;6.412;2023-02-26T21:06:54;38.72;;;24.15;;
51485;SDS011;37565;51.352;6.412;2023-02-26T21:09:37;37.90;;;24.95;;
51485;SDS011;37565;51.352;6.412;2023-02-26T21:12:05;41.03;;;26.63;;
51485;SDS011;37565;51.352;6.412;2023-02-26T21:14:34;43.78;;;27.50;;
51485;SDS011;37565;51.352;6.412;2023-02-26T21:17:03;40.88;;;26.23;;
51485;SDS011;37565;51.352;6.412;2023-02-26T21:19:32;40.22;;;26.73;;
51485;SDS011;37565;51.352;6.412;2023-02-26T21:22:00;47.55;;;28.92;;
51485;SDS011;37565;51.352;6.412;2023-02-26T21:24:28;46.53;;;29.38;;
51485;SDS011;37565;51.352;6.412;2023-02-26T21:26:56;49.97;;;31.50;;
51485;SDS011;37565;51.352;6.412;2023-02-26T21:29:24;52.25;;;31.75;;
51485;SDS011;37565;51.352;6.412;2023-02-26T21:31:54;56.47;;;31.48;;
51485;SDS011;37565;51.352;6.412;2023-02-26T21:34:23;58.85;;;33.80;;
51485;SDS011;37565;51.352;6.412;2023-02-26T21:36:59;49.95;;;33.50;;
51485;SDS011;37565;51.352;6.412;2023-02-26T21:39:27;58.63;;;36.72;;
51485;SDS011;37565;51.352;6.412;2023-02-26T21:41:56;55.05;;;35.85;;
51485;SDS011;37565;51.352;6.412;2023-02-26T21:44:25;52.35;;;34.97;;
51485;SDS011;37565;51.352;6.412;2023-02-26T21:46:55;59.22;;;37.03;;
51485;SDS011;37565;51.352;6.412;2023-02-26T21:49:23;59.97;;;37.90;;
51485;SDS011;37565;51.352;6.412;2023-02-26T21:51:51;65.68;;;42.53;;
51485;SDS011;37565;51.352;6.412;2023-02-26T21:54:20;67.40;;;42.25;;
51485;SDS011;37565;51.352;6.412;2023-02-26T21:56:48;58.30;;;39.22;;
51485;SDS011;37565;51.352;6.412;2023-02-26T21:59:17;64.90;;;40.45;;
51485;SDS011;37565;51.352;6.412;2023-02-26T22:01:45;64.65;;;40.42;;
51485;SDS011;37565;51.352;6.412;2023-02-26T22:04:14;64.25;;;40.28;;
51485;SDS011;37565;51.352;6.412;2023-02-26T22:06:42;62.28;;;39.20;;
51485;SDS011;37565;51.352;6.412;2023-02-26T22:09:10;60.83;;;39.05;;
51485;SDS011;37565;51.352;6.412;2023-02-26T22:11:39;66.13;;;42.08;;
51485;SDS011;37565;51.352;6.412;2023-02-26T22:14:06;67.72;;;41.65;;
51485;SDS011;37565;51.352;6.412;2023-02-26T22:16:34;64.53;;;42.80;;
51485;SDS011;37565;51.352;6.412;2023-02-26T22:19:02;68.78;;;44.80;;
51485;SDS011;37565;51.352;6.412;2023-02-26T22:21:32;68.80;;;45.60;;
51485;SDS011;37565;51.352;6.412;2023-02-26T22:23:59;67.03;;;41.33;;
51485;SDS011;37565;51.352;6.412;2023-02-26T22:26:28;66.50;;;43.47;;
51485;SDS011;37565;51.352;6.412;2023-02-26T22:28:57;68.15;;;43.53;;
51485;SDS011;37565;51.352;6.412;2023-02-26T22:31:26;76.50;;;47.22;;
51485;SDS011;37565;51.352;6.412;2023-02-26T22:33:55;73.07;;;47.67;;
51485;SDS011;37565;51.352;6.412;2023-02-26T22:36:23;82.85;;;54.35;;
51485;SDS011;37565;51.352;6.412;2023-02-26T22:38:52;71.97;;;46.70;;
51485;SDS011;37565;51.352;6.412;2023-02-26T22:41:20;78.68;;;48.28;;
51485;SDS011;37565;51.352;6.412;2023-02-26T22:43:48;86.93;;;51.33;;
51485;SDS011;37565;51.352;6.412;2023-02-26T22:46:19;77.90;;;48.28;;
51485;SDS011;37565;51.352;6.412;2023-02-26T22:48:49;77.72;;;49.28;;
51485;SDS011;37565;51.352;6.412;2023-02-26T22:51:17;78.30;;;49.33;;
51485;SDS011;37565;51.352;6.412;2023-02-26T22:53:45;81.85;;;50.58;;
51485;SDS011;37565;51.352;6.412;2023-02-26T22:56:14;84.10;;;52.10;;
51485;SDS011;37565;51.352;6.412;2023-02-26T22:58:42;75.55;;;50.47;;
51485;SDS011;37565;51.352;6.412;2023-02-26T23:01:10;77.97;;;48.80;;
51485;SDS011;37565;51.352;6.412;2023-02-26T23:03:38;77.97;;;49.35;;
51485;SDS011;37565;51.352;6.412;2023-02-26T23:06:06;83.85;;;50.88;;
51485;SDS011;37565;51.352;6.412;2023-02-26T23:08:35;86.90;;;50.08;;
51485;SDS011;37565;51.352;6.412;2023-02-26T23:11:03;78.88;;;49.50;;
51485;SDS011;37565;51.352;6.412;2023-02-26T23:13:33;87.82;;;53.55;;
51485;SDS011;37565;51.352;6.412;2023-02-26T23:16:02;78.32;;;50.45;;
51485;SDS011;37565;51.352;6.412;2023-02-26T23:18:32;80.88;;;49.55;;
51485;SDS011;37565;51.352;6.412;2023-02-26T23:21:02;81.30;;;49.00;;
51485;SDS011;37565;51.352;6.412;2023-02-26T23:23:31;77.80;;;48.70;;
51485;SDS011;37565;51.352;6.412;2023-02-26T23:25:59;89.38;;;53.65;;
51485;SDS011;37565;51.352;6.412;2023-02-26T23:28:26;85.57;;;50.50;;
51485;SDS011;37565;51.352;6.412;2023-02-26T23:30:56;91.88;;;56.95;;
51485;SDS011;37565;51.352;6.412;2023-02-26T23:33:24;93.47;;;53.70;;
51485;SDS011;37565;51.352;6.412;2023-02-26T23:35:52;74.30;;;47.15;;
51485;SDS011;37565;51.352;6.412;2023-02-26T23:38:20;72.47;;;44.90;;
51485;SDS011;37565;51.352;6.412;2023-02-26T23:40:47;72.55;;;42.70;;
